Amunt
Inicio > meteoXarxa
Fes-te'n soci

METEOXARXA

Atzeneta del Maestrat
Ubicació poble
Comarca l′Alcalatén
Altitud (msnm)
Posició geogràfica 40° 13' 41.88" N, 00° 10' 6.96" W
Model Instrumentació oficial
Presa de dades
Font de les dades AEMET
Estadístiques. Resum
Data Temperatura (ºC) Humitat (%) Pressió (hPa) Vent (km/h) Precipit. (mm)
Mínima Mitjana Màxima Mínima Mitjana Màxima Mínima Mitjana Màxima Predom. Mitjana Ràfega màxima Total Dies de pluja
Mínima Mitjana Màxima Mínima Mitjana Màxima
Últimes dades diàries
23-03-2017 5,9     10,5     15,0 39,0 0,0  
22-03-2017 4,3     11,3     18,4 37,0 0,0  
21-03-2017 5,6     12,1     18,6 23,0 0,0  
20-03-2017 5,1     13,6     22,1 26,0 0,0  
19-03-2017 3,6     13,4     23,3 23,0 0,0  
18-03-2017 -0,2     11,6     23,4 24,0 0,0  
17-03-2017 1,0     10,8     20,6 23,0 0,0  
16-03-2017 2,2     11,2     20,2 24,0 0,0  
15-03-2017 3,7     11,5     19,2 27,0 0,0  
14-03-2017 7,9     13,6     19,2 31,0 0,2  
13-03-2017 5,6     8,2     10,9 51,0 23,0  
12-03-2017 7,2     15,1     23,0 57,0 12,4  
11-03-2017 5,4     15,3     25,2 21,0 0,0  
10-03-2017 6,8     16,7     26,6 22,0 0,0  
09-03-2017 5,8     17,3     28,8 21,0 0,0  
08-03-2017 8,3     16,2     24,0 40,0 0,0  
07-03-2017 4,2     13,8     23,5 37,0 0,0  
06-03-2017          
05-03-2017 2,7     10,9     19,0 25,0 0,0  
03-03-2017 2,0     7,8     13,6 53,0 12,2  
02-03-2017 3,1     11,7     20,3 28,0 0,0  
01-03-2017 2,9     10,8     18,8 24,0 0,0  
28-02-2017 3,3     10,5     17,8 39,0 0,0  
27-02-2017 2,4     10,6     18,7 22,0 0,0  
26-02-2017 1,9     9,6     17,4 22,0 0,0  
25-02-2017 0,2     8,1     16,0 26,0 0,0  
24-02-2017 8,0     11,8     15,7 40,0 1,0  
23-02-2017 6,3     12,5     18,6 23,0 0,0  
22-02-2017 1,6     10,7     19,7 21,0 0,0  
20-02-2017 0,6     8,7     16,8 18,0 0,0  
19-02-2017 3,6     9,5     15,5 23,0 0,0  
18-02-2017 0,9     8,6     16,3 22,0 0,0  
Dades del mes en curs (actualitzades fins l'últim dia disponible)
03/2017 -0,2 4,4 8,3 12,5 10,9 20,7 28,8   57,0 47,8  
Últimes dades mensuals
02/2017 -0,7 4,0 10,9 10,0 10,0 16,0 19,7 99,0 8,0 6
01/2017 -2,3 1,3 8,6 7,0 5,4 12,8 18,8 107,0 98,8 7
12/2016 -3,0 3,8 11,4 9,4 8,7 15,0 18,3 55,0 69,0 9
11/2016 -0,7 5,8 12,9 11,5 11,3 17,3 24,3 71,0 81,0 10
10/2016 4,7 11,4 15,4 17,3 16,8 23,3 28,5 37,0 19,4 8
09/2016 8,4 14,0 20,0 21,2 22,9 28,4 38,2 60,0 27,4 7
08/2016 10,6 16,2 21,2 23,7 24,6 31,3 34,7 49,0 19,6 4
07/2016 11,9 16,3 19,6 24,3 27,6 32,3 36,2 41,0 0,8 2
06/2016 8,6 13,6 19,4 21,5 24,8 29,4 33,3 49,0 4,2 7
05/2016 1,6 9,4 13,6 15,9 14,0 22,4 29,1 73,0 53,6 8
04/2016 1,2 7,2 11,4 13,5 12,7 19,8 27,1 76,0 31,4 11
03/2016 -2,3 4,2 8,5 10,4 8,3 16,5 24,2 93,0 36,0 9
02/2016 -3,2 3,7 12,4 10,5 8,5 17,3 23,5 95,0 7,2 7
Dades de l'any en curs (actualitzades fins l'últim dia disponible)
2017 -2,3 3,1 10,9 9,5 5,4 16,0 28,8   107,0 154,6  
Últimes dades anuals
2013 -5,1 8,2 13,5 14,9 19,5 21,6 34,9 122,0 408,2 76